Time;durP1;ratioP1;P1;durP2;ratioP2;P2;SDS_P1;SDS_P2;PMS_P1;PMS_P2;Temp;Humidity;BMP_temperature;BMP_pressure;BME280_temperature;BME280_humidity;BME280_pressure;Samples;Min_cycle;Max_cycle;Signal;HPM_P1;HPM_P2
2021/04/12 00:01:51;;;;;;;25.53;17.47;;;11.50;45.90;;;;;;5017332;28;20509;-67
2021/04/12 00:04:34;;;;;;;21.85;16.17;;;11.40;46.20;;;;;;4996999;28;20038;-67
2021/04/12 00:07:27;;;;;;;24.77;17.60;;;11.40;46.20;;;;;;4997169;28;20069;-67
2021/04/12 00:10:10;;;;;;;24.77;17.00;;;11.40;46.20;;;;;;4997148;28;20023;-67
2021/04/12 00:12:56;;;;;;;27.73;17.73;;;11.40;46.10;;;;;;4997075;28;20022;-67
2021/04/12 00:15:53;;;;;;;25.42;16.67;;;11.40;47.00;;;;;;4996986;28;20026;-67
2021/04/12 00:18:42;;;;;;;23.50;16.20;;;11.40;46.40;;;;;;4976515;28;20125;-67
2021/04/12 00:21:26;;;;;;;24.85;17.10;;;11.40;46.70;;;;;;4996899;28;20621;-67
2021/04/12 00:24:04;;;;;;;27.33;18.63;;;11.40;46.80;;;;;;5010140;28;20022;-67
2021/04/12 00:26:36;;;;;;;26.70;18.55;;;11.30;47.00;;;;;;5016356;28;20029;-67
2021/04/12 00:29:23;;;;;;;23.58;17.58;;;11.30;47.30;;;;;;5016376;28;20022;-67
2021/04/12 00:31:58;;;;;;;27.20;18.75;;;11.30;47.60;;;;;;5004409;28;20038;-67
2021/04/12 00:34:23;;;;;;;28.67;20.30;;;11.30;47.50;;;;;;4996693;28;20577;-67
2021/04/12 00:36:58;;;;;;;26.35;18.70;;;11.30;47.30;;;;;;4996475;28;20032;-67
2021/04/12 00:39:48;;;;;;;28.65;19.77;;;11.20;47.40;;;;;;4996650;28;20053;-67
2021/04/12 00:42:46;;;;;;;25.63;17.25;;;11.20;47.70;;;;;;4998924;28;20030;-67
2021/04/12 00:45:32;;;;;;;24.95;17.88;;;11.30;47.90;;;;;;4958585;28;20081;-67
2021/04/12 00:48:35;;;;;;;26.85;18.38;;;11.20;47.90;;;;;;5016014;28;20105;-67
2021/04/12 00:51:30;;;;;;;25.70;18.00;;;11.10;47.80;;;;;;4998264;28;20389;-67
2021/04/12 00:54:17;;;;;;;27.90;19.85;;;11.10;47.90;;;;;;5028600;28;20021;-67
2021/04/12 00:56:54;;;;;;;26.98;19.20;;;11.10;47.80;;;;;;5011001;28;20054;-67
2021/04/12 00:59:39;;;;;;;27.52;19.23;;;11.00;48.00;;;;;;4996274;28;20101;-67
2021/04/12 01:02:29;;;;;;;24.48;18.58;;;11.10;48.00;;;;;;5006777;28;20054;-67
2021/04/12 01:05:04;;;;;;;26.45;18.88;;;11.00;48.20;;;;;;5015430;28;20033;-67
2021/04/12 01:07:29;;;;;;;29.05;20.52;;;11.00;48.20;;;;;;5015724;28;20434;-67
2021/04/12 01:10:07;;;;;;;27.40;21.10;;;10.90;48.30;;;;;;5015584;28;20014;-67
2021/04/12 01:13:03;;;;;;;24.95;19.13;;;10.90;48.70;;;;;;5016619;28;20034;-67
2021/04/12 01:15:55;;;;;;;24.50;19.35;;;10.90;49.00;;;;;;5015419;28;20037;-67
2021/04/12 01:18:49;;;;;;;27.67;20.75;;;10.90;49.10;;;;;;5012144;28;20034;-67
2021/04/12 01:21:41;;;;;;;26.98;19.38;;;10.90;49.50;;;;;;5015042;28;20022;-67
2021/04/12 01:24:43;;;;;;;30.17;20.92;;;10.80;49.90;;;;;;5018800;28;20030;-67
2021/04/12 01:27:09;;;;;;;27.27;19.92;;;10.90;50.30;;;;;;5015288;28;20064;-67
2021/04/12 01:30:08;;;;;;;27.20;19.45;;;10.80;50.30;;;;;;5015359;28;20105;-67
2021/04/12 01:32:52;;;;;;;27.77;19.10;;;10.80;50.40;;;;;;5015230;28;20026;-67
2021/04/12 01:35:37;;;;;;;28.33;18.67;;;10.80;50.40;;;;;;5014925;28;20026;-67
2021/04/12 01:38:28;;;;;;;26.90;19.17;;;10.80;50.90;;;;;;5014937;28;20030;-67
2021/04/12 01:41:09;;;;;;;27.80;19.10;;;10.80;50.40;;;;;;4995338;28;20116;-67
2021/04/12 01:44:13;;;;;;;28.80;19.80;;;10.70;50.20;;;;;;5003651;28;20029;-67
2021/04/12 01:47:09;;;;;;;26.25;18.20;;;10.70;50.50;;;;;;5014755;28;20026;-67
2021/04/12 01:50:11;;;;;;;25.90;18.50;;;10.70;50.40;;;;;;5014886;28;20026;-67
2021/04/12 01:53:11;;;;;;;24.63;18.35;;;10.70;50.30;;;;;;5017239;28;20026;-67
2021/04/12 01:55:39;;;;;;;28.00;20.02;;;10.70;50.60;;;;;;5033965;28;20033;-67
2021/04/12 01:58:44;;;;;;;26.63;19.40;;;10.70;50.80;;;;;;5016871;28;20025;-67
2021/04/12 02:01:44;;;;;;;27.77;19.42;;;10.70;51.30;;;;;;5021096;28;20065;-67
2021/04/12 02:04:44;;;;;;;24.88;18.67;;;10.70;51.40;;;;;;5010877;28;20037;-67
2021/04/12 02:07:28;;;;;;;28.27;19.83;;;10.70;51.00;;;;;;4995324;28;20046;-67
2021/04/12 02:10:08;;;;;;;28.25;19.92;;;10.60;50.80;;;;;;5014453;28;20080;-67
2021/04/12 02:13:12;;;;;;;28.65;19.00;;;10.60;50.60;;;;;;5014656;28;20037;-67
2021/04/12 02:16:05;;;;;;;28.60;19.38;;;10.50;50.30;;;;;;5014468;28;20026;-67
2021/04/12 02:18:51;;;;;;;28.23;19.05;;;10.50;50.40;;;;;;5014283;28;20041;-67
2021/04/12 02:21:28;;;;;;;25.77;18.67;;;10.50;50.30;;;;;;5014315;28;20021;-67
2021/04/12 02:24:12;;;;;;;27.48;19.77;;;10.40;50.20;;;;;;5026073;28;20412;-67
2021/04/12 02:26:55;;;;;;;28.52;19.98;;;10.40;50.30;;;;;;5033923;28;20018;-67
2021/04/12 02:29:33;;;;;;;28.25;19.75;;;10.40;50.50;;;;;;5033516;28;20492;-67
2021/04/12 02:32:23;;;;;;;30.10;20.13;;;10.30;50.60;;;;;;5010395;28;20681;-67
2021/04/12 02:34:58;;;;;;;29.75;20.50;;;10.30;50.70;;;;;;4994379;28;20076;-67
2021/04/12 02:37:59;;;;;;;27.08;19.30;;;10.30;50.70;;;;;;4994729;28;20038;-67
2021/04/12 02:40:46;;;;;;;27.10;19.33;;;10.30;50.80;;;;;;4957598;28;20043;-67
2021/04/12 02:43:19;;;;;;;27.40;19.08;;;10.30;50.80;;;;;;4994355;28;20053;-67
2021/04/12 02:46:12;;;;;;;24.42;18.92;;;10.30;50.80;;;;;;5000415;28;20080;-67
2021/04/12 02:49:03;;;;;;;25.20;17.98;;;10.20;51.00;;;;;;5014039;28;20472;-67
2021/04/12 02:51:38;;;;;;;28.65;18.77;;;10.20;51.00;;;;;;5013850;28;20018;-67
2021/04/12 02:54:28;;;;;;;24.38;18.00;;;10.20;51.60;;;;;;5029660;28;20033;-67
2021/04/12 02:57:12;;;;;;;25.48;17.33;;;10.20;51.00;;;;;;5033486;28;20473;-67
2021/04/12 02:59:56;;;;;;;27.35;19.42;;;10.20;51.10;;;;;;5033529;28;20401;-67
2021/04/12 03:02:27;;;;;;;26.00;18.63;;;10.20;51.10;;;;;;5015041;28;20113;-67
2021/04/12 03:05:09;;;;;;;29.30;20.50;;;10.20;51.10;;;;;;5013742;28;20057;-67
2021/04/12 03:07:55;;;;;;;23.58;18.05;;;10.20;51.30;;;;;;5013700;28;20026;-67
2021/04/12 03:10:45;;;;;;;28.10;18.52;;;10.10;51.20;;;;;;5013735;28;20034;-67
2021/04/12 03:13:32;;;;;;;29.67;20.92;;;10.10;51.30;;;;;;5013762;28;20033;-67
2021/04/12 03:16:09;;;;;;;26.77;19.38;;;10.10;51.40;;;;;;5013569;28;20033;-67
2021/04/12 03:18:47;;;;;;;30.42;20.17;;;10.10;51.40;;;;;;5013933;28;20108;-67
2021/04/12 03:21:36;;;;;;;26.52;19.77;;;10.10;51.50;;;;;;5013569;28;20060;-67
2021/04/12 03:24:11;;;;;;;27.15;19.55;;;10.10;51.80;;;;;;5029705;28;20033;-67
2021/04/12 03:27:09;;;;;;;26.55;20.48;;;10.20;51.90;;;;;;5033215;28;20465;-67
2021/04/12 03:29:35;;;;;;;28.10;19.42;;;10.10;52.10;;;;;;5033205;28;20026;-67
2021/04/12 03:32:30;;;;;;;29.90;21.30;;;10.20;52.30;;;;;;5033134;28;20476;-67
2021/04/12 03:35:14;;;;;;;27.23;19.38;;;10.20;52.50;;;;;;5033132;28;20025;-67
2021/04/12 03:38:07;;;;;;;29.42;21.08;;;10.20;52.40;;;;;;5033360;28;20029;-67
2021/04/12 03:40:37;;;;;;;28.33;19.92;;;10.10;52.40;;;;;;5033273;28;20029;-67
2021/04/12 03:43:21;;;;;;;28.23;20.10;;;10.10;52.50;;;;;;5033455;28;20160;-67
2021/04/12 03:46:11;;;;;;;28.00;19.63;;;10.20;52.40;;;;;;5026600;28;20033;-67
2021/04/12 03:48:55;;;;;;;26.83;20.17;;;10.20;52.50;;;;;;5013412;28;20036;-67
2021/04/12 03:51:59;;;;;;;30.65;20.83;;;10.20;52.60;;;;;;5013352;28;20440;-67
2021/04/12 03:54:53;;;;;;;28.08;21.38;;;10.20;52.80;;;;;;4991266;28;20077;-67
2021/04/12 03:57:54;;;;;;;31.17;21.45;;;10.20;53.00;;;;;;4993726;28;20033;-67
2021/04/12 04:00:43;;;;;;;31.55;21.20;;;10.30;53.00;;;;;;4995589;28;20423;-67
2021/04/12 04:03:20;;;;;;;29.02;20.02;;;10.30;52.90;;;;;;4993185;28;20031;-67
2021/04/12 04:06:18;;;;;;;26.98;20.45;;;10.30;53.00;;;;;;4993248;28;20068;-66
2021/04/12 04:08:50;;;;;;;28.52;19.83;;;10.30;53.40;;;;;;4976580;28;20069;-66
2021/04/12 04:11:25;;;;;;;27.98;19.88;;;10.30;53.50;;;;;;4996782;28;20359;-66
2021/04/12 04:14:09;;;;;;;28.77;20.90;;;10.30;53.40;;;;;;4996674;28;20023;-66
2021/04/12 04:16:58;;;;;;;30.60;21.05;;;10.30;53.70;;;;;;4996816;28;20458;-66
2021/04/12 04:19:49;;;;;;;30.17;21.23;;;10.40;53.60;;;;;;4996985;28;20022;-66
2021/04/12 04:22:33;;;;;;;28.77;21.08;;;10.40;53.70;;;;;;5000227;28;20045;-66
2021/04/12 04:25:20;;;;;;;28.90;20.75;;;10.40;53.50;;;;;;5015887;28;20057;-66
2021/04/12 04:28:07;;;;;;;31.80;22.00;;;10.40;53.90;;;;;;5002681;28;20458;-67
2021/04/12 04:30:54;;;;;;;27.95;21.50;;;10.40;53.20;;;;;;4996761;28;20026;-66
2021/04/12 04:33:41;;;;;;;32.78;21.73;;;10.40;52.80;;;;;;4996691;28;20025;-66
2021/04/12 04:36:25;;;;;;;26.58;20.35;;;10.50;52.70;;;;;;4996564;28;20026;-66
2021/04/12 04:39:09;;;;;;;28.10;20.98;;;10.50;52.80;;;;;;4996712;28;20053;-66
2021/04/12 04:41:37;;;;;;;28.33;19.92;;;10.50;52.70;;;;;;4996668;28;20350;-66
2021/04/12 04:44:18;;;;;;;30.63;20.98;;;10.40;52.70;;;;;;4996351;28;20085;-66
2021/04/12 04:46:50;;;;;;;27.33;20.67;;;10.40;52.90;;;;;;4996299;28;20028;-67
2021/04/12 04:49:36;;;;;;;25.63;19.77;;;10.40;53.10;;;;;;4996194;28;20023;-68
2021/04/12 04:52:19;;;;;;;28.65;21.25;;;10.40;53.20;;;;;;5000195;28;20101;-66
2021/04/12 04:55:00;;;;;;;31.05;20.83;;;10.40;53.30;;;;;;5015874;28;20053;-66
2021/04/12 04:57:53;;;;;;;28.88;20.05;;;10.40;53.50;;;;;;5015764;28;20120;-66
2021/04/12 05:00:31;;;;;;;30.05;21.92;;;10.40;53.60;;;;;;5015637;28;20030;-66
2021/04/12 05:03:31;;;;;;;31.65;22.27;;;10.40;53.70;;;;;;4996043;28;20057;-66
2021/04/12 05:06:16;;;;;;;29.65;21.70;;;10.40;53.90;;;;;;4995434;28;20035;-66
2021/04/12 05:08:53;;;;;;;27.13;20.33;;;10.40;54.10;;;;;;4995964;28;20106;-66
2021/04/12 05:12:08;;;;;;;28.58;20.30;;;10.40;54.10;;;;;;4996127;28;20026;-66
2021/04/12 05:14:52;;;;;;;26.38;19.67;;;10.50;53.90;;;;;;4952610;28;20085;-61
2021/04/12 05:17:27;;;;;;;29.50;21.17;;;10.50;53.80;;;;;;4995735;28;20037;-63
2021/04/12 05:20:31;;;;;;;26.77;19.75;;;10.40;53.70;;;;;;4996534;28;20077;-61
2021/04/12 05:23:15;;;;;;;31.85;20.70;;;10.40;53.60;;;;;;5007281;28;20030;-61
2021/04/12 05:26:19;;;;;;;32.03;21.23;;;10.40;53.90;;;;;;5015619;28;20053;-61
2021/04/12 05:29:11;;;;;;;29.10;21.33;;;10.30;54.20;;;;;;5013836;28;20042;-61
2021/04/12 05:32:07;;;;;;;25.65;20.10;;;10.20;54.30;;;;;;5005832;28;20450;-61
2021/04/12 05:34:59;;;;;;;29.42;21.23;;;10.20;55.30;;;;;;5010589;28;20037;-61
2021/04/12 05:37:51;;;;;;;33.95;22.98;;;10.20;55.20;;;;;;4975237;28;20033;-67
2021/04/12 05:40:16;;;;;;;;;;;10.20;55.80;;;;;;5009614;28;20480;-67
2021/04/12 05:42:53;;;;;;;31.17;21.92;;;10.10;56.20;;;;;;5013638;28;19909;-58
2021/04/12 05:45:38;;;;;;;34.08;23.08;;;10.10;56.00;;;;;;5004700;28;20022;-59
2021/04/12 05:48:37;;;;;;;31.20;22.75;;;10.10;56.60;;;;;;5011155;28;20054;-61
2021/04/12 05:51:44;;;;;;;28.77;20.48;;;10.20;57.10;;;;;;5014108;28;20028;-61
2021/04/12 05:54:40;;;;;;;30.67;21.70;;;10.10;56.60;;;;;;4961740;28;20056;-61
2021/04/12 05:57:17;;;;;;;27.48;20.77;;;10.10;56.40;;;;;;5009989;28;20037;-62
2021/04/12 06:00:10;;;;;;;25.50;20.38;;;10.10;56.90;;;;;;5017482;28;20060;-61
2021/04/12 06:03:10;;;;;;;27.20;20.90;;;10.10;56.60;;;;;;5004587;28;20050;-66
2021/04/12 06:05:38;;;;;;;32.30;21.75;;;10.10;57.00;;;;;;4996299;28;20045;-65
2021/04/12 06:08:07;;;;;;;29.27;22.13;;;10.10;57.20;;;;;;5001784;28;20033;-64
2021/04/12 06:11:04;;;;;;;29.50;21.95;;;10.00;57.10;;;;;;4996503;28;20075;-63
2021/04/12 06:13:49;;;;;;;33.30;23.63;;;10.10;57.40;;;;;;5003438;28;20485;-60
2021/04/12 06:16:40;;;;;;;31.77;21.00;;;10.10;57.60;;;;;;5004982;28;20044;-59
2021/04/12 06:19:15;;;;;;;27.98;21.48;;;10.00;58.20;;;;;;4988027;28;20025;-65
2021/04/12 06:22:08;;;;;;;34.95;21.60;;;10.00;57.40;;;;;;4999398;28;20026;-63
2021/04/12 06:25:13;;;;;;;31.83;22.10;;;10.00;57.40;;;;;;4999954;28;20037;-66
2021/04/12 06:28:20;;;;;;;31.50;20.92;;;10.00;57.60;;;;;;5007941;28;20041;-64
2021/04/12 06:31:09;;;;;;;28.70;21.27;;;10.00;57.80;;;;;;4991979;28;20037;-65
2021/04/12 06:33:59;;;;;;;28.98;20.80;;;10.00;58.20;;;;;;4967060;28;20532;-62
2021/04/12 06:36:53;;;;;;;27.40;20.75;;;10.00;58.30;;;;;;4996362;28;20026;-62
2021/04/12 06:39:32;;;;;;;30.15;21.25;;;10.00;58.60;;;;;;5001170;28;20030;-63
2021/04/12 06:42:04;;;;;;;27.00;20.58;;;10.10;58.90;;;;;;5003253;28;20501;-69
2021/04/12 06:44:58;;;;;;;29.00;20.85;;;10.10;59.10;;;;;;4997287;28;20045;-69
2021/04/12 06:48:01;;;;;;;27.38;18.85;;;10.10;59.30;;;;;;5003441;28;20025;-68
2021/04/12 06:50:48;;;;;;;27.88;20.52;;;10.10;59.50;;;;;;5002317;28;20462;-63
2021/04/12 06:53:51;;;;;;;27.38;20.42;;;10.10;59.80;;;;;;5000081;28;20769;-60
2021/04/12 06:56:16;;;;;;;28.17;20.15;;;10.10;60.00;;;;;;4994589;28;20109;-64
2021/04/12 06:59:09;;;;;;;27.80;19.92;;;10.10;60.20;;;;;;5000091;28;20129;-64
2021/04/12 07:02:04;;;;;;;25.45;19.10;;;10.10;60.30;;;;;;4990411;28;20054;-63
2021/04/12 07:05:01;;;;;;;28.45;21.45;;;10.10;60.50;;;;;;4984117;28;20038;-63
2021/04/12 07:07:43;;;;;;;27.67;19.50;;;10.10;60.50;;;;;;4981203;28;20084;-64
2021/04/12 07:10:33;;;;;;;28.13;21.20;;;10.10;60.70;;;;;;4984799;28;20030;-62
2021/04/12 07:13:17;;;;;;;28.27;21.10;;;10.10;60.90;;;;;;4985220;28;20045;-63
2021/04/12 07:16:28;;;;;;;28.25;20.88;;;10.10;61.00;;;;;;4987695;28;20492;-64
2021/04/12 07:19:12;;;;;;;26.35;19.20;;;10.10;61.20;;;;;;4948368;28;20457;-64
2021/04/12 07:21:57;;;;;;;26.60;19.48;;;10.10;61.00;;;;;;4977659;28;20039;-66
2021/04/12 07:25:03;;;;;;;27.10;20.35;;;10.10;61.00;;;;;;4981890;28;20077;-66
2021/04/12 07:28:03;;;;;;;25.48;19.83;;;10.10;61.40;;;;;;4979238;28;20034;-61
2021/04/12 07:30:53;;;;;;;26.10;19.55;;;10.10;61.50;;;;;;4981970;28;20112;-64
2021/04/12 07:33:50;;;;;;;27.67;20.05;;;10.10;61.70;;;;;;4976648;28;20022;-57
2021/04/12 07:36:51;;;;;;;28.33;21.48;;;10.10;62.00;;;;;;4982824;28;20026;-59
2021/04/12 07:39:38;;;;;;;27.25;21.50;;;10.10;62.10;;;;;;4962409;28;20366;-59
2021/04/12 07:42:28;;;;;;;31.23;21.38;;;10.10;62.20;;;;;;4980974;28;20053;-63
2021/04/12 07:45:31;;;;;;;26.55;20.33;;;10.20;62.70;;;;;;4985081;28;20030;-61
2021/04/12 07:48:17;;;;;;;23.08;18.92;;;10.20;62.50;;;;;;4981092;28;20109;-64
2021/04/12 07:51:21;;;;;;;26.08;18.98;;;10.20;62.50;;;;;;4933629;28;20531;-61
2021/04/12 07:54:24;;;;;;;26.77;19.98;;;10.30;62.90;;;;;;4981743;28;20022;-63
2021/04/12 07:57:10;;;;;;;27.48;20.67;;;10.30;63.00;;;;;;4976714;28;20088;-60
2021/04/12 08:00:04;;;;;;;26.05;20.33;;;10.40;63.80;;;;;;4975948;28;20054;-62
2021/04/12 08:02:51;;;;;;;33.88;21.95;;;10.40;63.20;;;;;;4997500;28;20060;-62
2021/04/12 08:05:41;;;;;;;25.92;20.05;;;10.50;63.40;;;;;;5000450;28;20022;-60
2021/04/12 08:08:17;;;;;;;25.70;20.40;;;10.60;63.20;;;;;;5000009;28;20037;-60
2021/04/12 08:11:03;;;;;;;31.52;22.10;;;10.60;63.60;;;;;;5001275;28;20048;-61
2021/04/12 08:14:06;;;;;;;27.63;21.38;;;10.70;63.50;;;;;;5002133;28;20465;-62
2021/04/12 08:17:00;;;;;;;28.10;20.23;;;10.80;63.80;;;;;;5001047;28;20039;-61
2021/04/12 08:20:04;;;;;;;24.25;19.77;;;10.90;64.00;;;;;;5001704;28;20404;-61
2021/04/12 08:22:54;;;;;;;26.60;20.83;;;11.10;64.30;;;;;;4997375;28;20037;-63
2021/04/12 08:25:57;;;;;;;29.35;20.88;;;11.20;64.10;;;;;;4997057;28;20038;-60
2021/04/12 08:29:00;;;;;;;26.13;21.70;;;11.30;64.00;;;;;;4997302;28;20676;-64
2021/04/12 08:31:26;;;;;;;27.25;20.45;;;11.40;63.90;;;;;;4997089;28;20030;-61
2021/04/12 08:34:30;;;;;;;29.05;22.10;;;11.50;63.60;;;;;;5003829;28;20044;-62
2021/04/12 08:37:11;;;;;;;25.63;20.30;;;11.60;64.10;;;;;;4999959;28;20034;-59
2021/04/12 08:39:39;;;;;;;27.97;20.13;;;11.70;63.90;;;;;;4996825;28;20036;-61
2021/04/12 08:42:33;;;;;;;24.70;20.40;;;11.70;63.80;;;;;;4996956;28;20429;-61
2021/04/12 08:45:37;;;;;;;26.67;21.55;;;11.70;63.90;;;;;;4995422;28;20046;-62
2021/04/12 08:48:19;;;;;;;25.35;20.38;;;11.80;64.20;;;;;;4996607;28;20060;-60
2021/04/12 08:50:51;;;;;;;28.17;21.88;;;11.90;64.40;;;;;;4993665;28;20234;-58
2021/04/12 08:53:31;;;;;;;25.25;21.15;;;11.90;63.90;;;;;;4994898;28;20137;-62
2021/04/12 08:56:08;;;;;;;25.98;21.10;;;12.00;64.10;;;;;;4994390;28;20037;-62
2021/04/12 08:59:05;;;;;;;29.38;21.23;;;12.00;63.90;;;;;;4998204;28;20041;-62
2021/04/12 09:02:05;;;;;;;26.35;21.20;;;12.00;64.00;;;;;;4992082;28;20056;-61
2021/04/12 09:05:08;;;;;;;25.70;20.95;;;12.00;64.10;;;;;;4999338;28;20062;-63
2021/04/12 09:08:11;;;;;;;26.88;20.65;;;12.00;64.30;;;;;;4998214;28;20089;-63
2021/04/12 09:11:11;;;;;;;26.35;20.52;;;12.00;64.30;;;;;;5001027;28;20030;-63
2021/04/12 09:13:52;;;;;;;24.85;20.10;;;12.10;64.20;;;;;;4996042;28;20679;-62
2021/04/12 09:16:35;;;;;;;24.58;19.65;;;12.10;64.10;;;;;;5001152;28;20026;-62
2021/04/12 09:19:16;;;;;;;23.65;20.88;;;12.10;64.00;;;;;;4997097;28;20497;-62
2021/04/12 09:22:19;;;;;;;23.80;20.58;;;12.00;64.00;;;;;;4997385;28;20343;-63
2021/04/12 09:24:45;;;;;;;28.55;19.92;;;12.10;64.30;;;;;;4990127;28;20044;-60
2021/04/12 09:27:35;;;;;;;27.63;20.75;;;12.10;64.30;;;;;;4996451;28;20828;-62
2021/04/12 09:30:22;;;;;;;28.08;20.88;;;12.10;64.30;;;;;;4995820;28;20026;-61
2021/04/12 09:33:18;;;;;;;28.13;20.63;;;12.10;64.30;;;;;;4995564;28;20030;-62
2021/04/12 09:36:05;;;;;;;28.30;21.88;;;12.10;64.40;;;;;;4997703;28;20042;-62
2021/04/12 09:38:55;;;;;;;25.75;20.60;;;12.10;64.40;;;;;;4999672;28;20173;-62
2021/04/12 09:41:52;;;;;;;26.02;20.15;;;12.10;64.50;;;;;;4996371;28;20034;-63
2021/04/12 09:44:42;;;;;;;26.27;20.80;;;12.20;64.50;;;;;;4998569;28;20076;-63
2021/04/12 09:47:39;;;;;;;25.15;20.02;;;12.20;64.40;;;;;;4999918;28;20030;-62
2021/04/12 09:50:17;;;;;;;27.30;20.48;;;12.20;64.30;;;;;;5001414;28;20040;-64
2021/04/12 09:52:56;;;;;;;23.30;19.42;;;12.20;64.30;;;;;;4998250;28;20754;-62
2021/04/12 09:55:50;;;;;;;27.77;20.48;;;12.20;64.50;;;;;;4995974;28;20048;-62
2021/04/12 09:58:44;;;;;;;25.10;20.38;;;12.20;64.40;;;;;;4998693;28;20475;-61
2021/04/12 10:01:51;;;;;;;22.98;19.65;;;12.20;64.40;;;;;;4997882;28;20390;-65
2021/04/12 10:04:41;;;;;;;24.58;18.55;;;12.20;64.60;;;;;;4989712;28;20046;-66
2021/04/12 10:07:20;;;;;;;23.98;19.95;;;12.20;64.50;;;;;;4996866;28;20444;-66
2021/04/12 10:10:17;;;;;;;26.35;21.15;;;12.20;64.60;;;;;;5000517;28;20029;-66
2021/04/12 10:13:07;;;;;;;23.33;19.27;;;12.20;64.70;;;;;;5001017;28;20034;-66
2021/04/12 10:15:42;;;;;;;24.30;19.38;;;12.20;64.60;;;;;;5000881;28;20375;-66
2021/04/12 10:18:27;;;;;;;25.65;20.00;;;12.20;64.70;;;;;;5001732;28;20473;-66
2021/04/12 10:21:34;;;;;;;25.80;19.88;;;12.20;64.60;;;;;;5005294;28;20069;-65
2021/04/12 10:24:28;;;;;;;25.35;19.42;;;12.20;64.40;;;;;;5002753;28;20056;-65
2021/04/12 10:26:59;;;;;;;25.00;19.33;;;12.30;64.60;;;;;;4997829;28;20766;-66
2021/04/12 10:56:53;;;;;;;23.70;18.95;;;12.30;64.60;;;;;;5001155;28;20045;-66
2021/04/12 10:59:26;;;;;;;23.08;19.38;;;12.30;64.70;;;;;;4996653;28;20141;-66
2021/04/12 11:01:56;;;;;;;23.33;18.85;;;12.30;64.70;;;;;;4998438;28;20497;-65
2021/04/12 11:04:46;;;;;;;24.75;18.88;;;12.30;64.60;;;;;;4999242;28;20037;-66
2021/04/12 11:07:37;;;;;;;25.90;18.40;;;12.40;64.70;;;;;;4999617;28;20730;-65
2021/04/12 11:10:24;;;;;;;26.08;18.85;;;12.40;64.60;;;;;;4996392;28;20035;-65
2021/04/12 11:13:01;;;;;;;22.52;18.83;;;12.40;64.80;;;;;;4997036;28;20037;-65
2021/04/12 11:15:45;;;;;;;28.08;19.48;;;12.40;64.70;;;;;;5000401;28;20034;-66
2021/04/12 11:18:34;;;;;;;20.13;17.15;;;12.50;64.80;;;;;;5000797;28;20493;-67
2021/04/12 11:21:03;;;;;;;22.95;18.40;;;12.50;64.90;;;;;;5001807;28;20478;-65
2021/04/12 11:23:42;;;;;;;24.83;19.60;;;12.40;65.10;;;;;;5001363;28;20497;-64
2021/04/12 11:26:31;;;;;;;21.10;18.05;;;12.60;65.40;;;;;;4982488;28;20034;-65
2021/04/12 11:29:06;;;;;;;21.88;16.75;;;12.60;65.40;;;;;;4999323;28;20089;-64
2021/04/12 11:31:40;;;;;;;22.02;17.10;;;12.60;65.50;;;;;;4998768;28;20030;-65
2021/04/12 11:34:26;;;;;;;22.80;17.45;;;12.60;65.50;;;;;;4999140;28;20034;-65
2021/04/12 11:37:10;;;;;;;24.33;16.80;;;12.60;65.50;;;;;;5002298;28;22027;-65
2021/04/12 11:39:39;;;;;;;20.30;15.98;;;12.60;65.40;;;;;;5003575;28;20034;-65
2021/04/12 11:42:19;;;;;;;17.77;15.60;;;12.60;65.30;;;;;;5004348;28;20514;-65
2021/04/12 11:45:12;;;;;;;18.55;15.25;;;12.60;65.10;;;;;;5000247;28;20112;-65
2021/04/12 11:47:46;;;;;;;19.17;15.05;;;12.60;64.80;;;;;;4991190;28;20389;-65
2021/04/12 11:50:33;;;;;;;22.65;15.77;;;12.60;65.00;;;;;;5003237;28;20474;-64
2021/04/12 11:53:27;;;;;;;19.02;15.75;;;12.60;65.00;;;;;;5001656;28;20116;-66
2021/04/12 11:56:05;;;;;;;17.85;15.02;;;12.60;65.40;;;;;;5003226;28;20033;-66
2021/04/12 11:58:48;;;;;;;18.00;14.68;;;12.60;65.40;;;;;;5004605;28;20036;-66
2021/04/12 12:01:30;;;;;;;20.67;16.27;;;12.60;65.30;;;;;;5003048;28;20133;-66
2021/04/12 12:04:49;;;;;;;18.30;15.60;;;12.60;65.50;;;;;;5000128;28;21609;-66
2021/04/12 12:07:37;;;;;;;18.05;14.55;;;12.70;65.30;;;;;;4936818;28;21912;-66
2021/04/12 12:10:31;;;;;;;18.58;15.15;;;12.70;65.20;;;;;;5008525;28;20018;-65
2021/04/12 12:13:16;;;;;;;22.15;15.68;;;12.80;65.00;;;;;;5002613;28;20053;-64
2021/04/12 12:16:01;;;;;;;20.67;15.57;;;12.80;64.90;;;;;;4997953;28;20026;-65
2021/04/12 12:18:39;;;;;;;18.08;15.80;;;12.90;64.70;;;;;;5002289;28;20129;-64
2021/04/12 12:21:30;;;;;;;16.85;15.02;;;12.90;64.70;;;;;;5000384;28;20083;-65
2021/04/12 12:23:59;;;;;;;18.15;13.90;;;13.00;64.40;;;;;;4999378;28;20040;-65
2021/04/12 12:26:27;;;;;;;22.23;14.63;;;12.90;64.30;;;;;;5002308;28;20030;-64
2021/04/12 12:29:11;;;;;;;17.58;14.57;;;13.00;64.90;;;;;;4997900;28;20057;-66
2021/04/12 12:32:14;;;;;;;17.98;14.93;;;13.00;64.10;;;;;;4995914;28;20460;-65
2021/04/12 12:34:55;;;;;;;19.13;14.45;;;13.00;64.10;;;;;;4997973;28;20695;-65
2021/04/12 12:37:23;;;;;;;18.25;13.93;;;13.00;64.20;;;;;;4997629;28;20380;-65
2021/04/12 12:39:56;;;;;;;17.45;14.98;;;13.00;64.20;;;;;;4999752;28;20069;-65
2021/04/12 12:42:33;;;;;;;20.05;14.43;;;13.00;64.00;;;;;;4994443;28;20257;-65
2021/04/12 12:45:11;;;;;;;18.05;13.82;;;13.10;64.10;;;;;;4997955;28;20053;-67
2021/04/12 12:47:40;;;;;;;20.48;13.98;;;13.10;64.20;;;;;;5002406;28;20101;-65
2021/04/12 12:50:13;;;;;;;17.13;14.23;;;13.10;64.30;;;;;;5002440;28;20034;-65
2021/04/12 12:52:47;;;;;;;21.30;15.45;;;13.20;64.50;;;;;;5004754;28;20503;-65
2021/04/12 12:55:20;;;;;;;19.10;15.20;;;13.20;64.50;;;;;;5001147;28;20107;-65
2021/04/12 12:57:49;;;;;;;17.20;14.07;;;13.20;64.60;;;;;;4995854;28;20085;-65
2021/04/12 13:00:20;;;;;;;17.98;14.38;;;13.20;64.90;;;;;;4997736;28;20034;-65
2021/04/12 13:02:47;;;;;;;19.35;14.68;;;13.20;64.80;;;;;;4999108;28;20041;-65
2021/04/12 13:05:22;;;;;;;20.42;15.00;;;13.30;64.80;;;;;;4997887;28;20081;-65
2021/04/12 13:07:49;;;;;;;19.67;15.18;;;13.30;64.80;;;;;;4993976;28;20045;-67
2021/04/12 13:10:25;;;;;;;20.02;15.32;;;13.40;64.70;;;;;;4996068;28;20040;-65
2021/04/12 13:12:52;;;;;;;18.38;14.98;;;13.40;64.30;;;;;;4998149;28;20523;-65
2021/04/12 13:15:24;;;;;;;20.05;15.48;;;13.40;64.40;;;;;;5003105;28;20041;-64
2021/04/12 13:17:50;;;;;;;18.35;14.20;;;13.50;64.40;;;;;;4999232;28;20061;-65
2021/04/12 13:20:47;;;;;;;20.95;15.63;;;13.50;64.10;;;;;;4999912;28;20129;-65
2021/04/12 13:23:16;;;;;;;22.58;15.07;;;13.50;63.90;;;;;;5003958;28;20025;-65
2021/04/12 13:25:46;;;;;;;18.67;14.73;;;13.50;63.90;;;;;;4991032;28;20657;-65
2021/04/12 13:28:20;;;;;;;17.98;15.30;;;13.50;64.00;;;;;;4996956;28;20026;-65
2021/04/12 13:31:02;;;;;;;23.35;14.77;;;13.50;64.10;;;;;;5000581;28;20026;-65
2021/04/12 13:33:35;;;;;;;23.60;15.38;;;13.50;64.20;;;;;;5000958;28;20370;-65
2021/04/12 13:36:25;;;;;;;17.35;14.13;;;13.50;64.40;;;;;;5001089;28;20029;-65
2021/04/12 13:38:59;;;;;;;17.40;15.00;;;13.60;64.10;;;;;;4986428;28;20038;-65
2021/04/12 13:41:31;;;;;;;18.92;14.90;;;13.60;64.30;;;;;;4985231;28;20363;-65
2021/04/12 13:44:09;;;;;;;21.48;16.27;;;13.60;64.40;;;;;;5000921;28;20033;-64
2021/04/12 13:47:01;;;;;;;18.25;14.85;;;13.60;64.30;;;;;;5000519;28;20030;-65
2021/04/12 13:49:44;;;;;;;16.45;13.98;;;13.70;64.20;;;;;;5001955;28;20027;-65
2021/04/12 13:52:29;;;;;;;20.38;14.55;;;13.70;64.10;;;;;;5005660;28;20057;-64
2021/04/12 13:55:12;;;;;;;18.50;15.05;;;13.60;64.20;;;;;;4999071;28;20418;-65
2021/04/12 13:57:46;;;;;;;19.48;15.18;;;13.60;64.30;;;;;;4996709;28;20112;-65
2021/04/12 14:00:21;;;;;;;17.98;14.50;;;13.60;64.10;;;;;;4995893;28;20026;-65
2021/04/12 14:03:12;;;;;;;19.42;14.48;;;13.60;63.80;;;;;;4992747;28;20054;-65
2021/04/12 14:05:40;;;;;;;22.83;15.55;;;13.60;63.90;;;;;;4999927;28;20034;-65
2021/04/12 14:08:22;;;;;;;18.42;14.90;;;13.60;64.10;;;;;;5002468;28;20626;-65
2021/04/12 14:11:44;;;;;;;19.30;15.15;;;13.50;64.00;;;;;;5000333;28;20018;-65
2021/04/12 14:14:21;;;;;;;17.60;14.45;;;13.50;64.00;;;;;;4970761;28;20460;-65
2021/04/12 14:16:54;;;;;;;20.45;14.02;;;13.50;64.20;;;;;;4999490;28;20025;-65
2021/04/12 14:19:26;;;;;;;19.95;16.13;;;13.50;64.20;;;;;;5001539;28;20037;-65
2021/04/12 14:22:20;;;;;;;20.27;15.80;;;13.50;64.20;;;;;;5001583;28;20037;-65
2021/04/12 14:24:52;;;;;;;20.50;14.93;;;13.40;64.20;;;;;;5000162;28;20041;-65
2021/04/12 14:27:27;;;;;;;21.33;15.38;;;13.40;64.30;;;;;;5003542;28;20052;-65
2021/04/12 14:30:07;;;;;;;18.23;15.18;;;13.40;64.30;;;;;;4998883;28;20033;-65